Ana Sayfa
METAR-TAF:

METAR-TAF

Havaalanları :

Lynchburg Regional Airport (Preston Glenn Field)

Lynchburg, Virginia, Amerika Birleşik Devletleri

Enlem: 37-19-15N, Boylam: 079-12-24W, yükseklik: 285 m

Güncel hava durumu gözlemi

Rapor saat 00:54 UTC de 52 dakika önce yapıldı.
Sakin rüzgar
Sıcaklık 14°C
Nem 82%
Basınç 1018 hPa
Görüş mesafesi: 16.1 km
Açık gökyüzü

METAR: KLYH 070054Z 00000KT 10SM CLR 14/11 A3005 RMK AO2 SLP173 T01390106

Saat: 21:46 (01:46 UTC)

Tahmin

Rapor saat 23:20 UTC de 2 saat ve 26 dakika önce yapıldı.
Ayın 07'si saat 00 UTC'den ayın 07'si saat 24 UTC'ye kadar geçerli Tahmin
Rüzgar değişken yönden 3 kt
Görüş mesafesi: 10 km
Açık gökyüzü

TAF: KLYH 062320Z 0700/0724 VRB03KT P6SM SKC

4.000'den fazla havaalanı için hava durumu gözlemleri ve tahminleri (METAR ve TAF raporları).

Kullanılabilir istasyonlar harita üzerinde sarı ve kırmızı noktalarla gösterilir.

İstasyonun adını görmek için fareyi noktanın üzerinde gezdirin.

Sonrasında hava gözlem ve tahminlerini görmek için tıklayın.

Haritayı değiştirmek için: yaklaştırmak için siyah artı işaretli yeşil düğmeye ve uzaklaştırmak için de eksi işaretli düğmeye hızla tıklayın; bitişik haritalar için yeşil okları kullanın.


METAR-TAF: